Time;durP1;ratioP1;P1;durP2;ratioP2;P2;SDS_P1;SDS_P2;PMS_P1;PMS_P2;Temp;Humidity;BMP_temperature;BMP_pressure;BME280_temperature;BME280_humidity;BME280_pressure;Samples;Min_cycle;Max_cycle;Signal;HPM_P1;HPM_P2
2024/03/14 00:01:56;;;;;;;11.20;8.05;;;;;;;;;;5023159;28;25053;-67
2024/03/14 00:04:22;;;;;;;8.15;7.18;;;;;;;;;;5019936;28;25055;-66
2024/03/14 00:06:48;;;;;;;10.82;8.32;;;;;;;;;;5014745;28;25106;-66
2024/03/14 00:09:14;;;;;;;10.60;6.95;;;;;;;;;;5023062;28;25072;-66
2024/03/14 00:11:40;;;;;;;12.43;7.78;;;;;;;;;;5019393;28;25165;-67
2024/03/14 00:14:06;;;;;;;9.30;7.93;;;;;;;;;;5023134;28;25081;-67
2024/03/14 00:16:33;;;;;;;7.82;7.07;;;;;;;;;;5017938;28;25075;-69
2024/03/14 00:18:59;;;;;;;8.35;7.55;;;;;;;;;;5024650;28;25063;-66
2024/03/14 00:21:26;;;;;;;10.07;8.02;;;;;;;;;;5023025;28;25050;-67
2024/03/14 00:23:52;;;;;;;9.00;8.10;;;;;;;;;;5022274;28;25056;-66
2024/03/14 00:26:18;;;;;;;8.13;7.30;;;;;;;;;;5026647;28;25062;-65
2024/03/14 00:28:44;;;;;;;10.00;7.75;;;;;;;;;;5022274;28;25163;-66
2024/03/14 00:31:13;;;;;;;8.82;7.55;;;;;;;;;;5022170;28;25079;-68
2024/03/14 00:33:39;;;;;;;7.75;7.05;;;;;;;;;;5019389;28;25145;-67
2024/03/14 00:36:05;;;;;;;9.57;7.55;;;;;;;;;;5010875;28;25083;-65
2024/03/14 00:38:32;;;;;;;8.90;7.00;;;;;;;;;;5025217;28;25068;-67
2024/03/14 00:41:01;;;;;;;9.77;7.28;;;;;;;;;;5018471;28;25056;-67
2024/03/14 00:43:27;;;;;;;9.38;7.80;;;;;;;;;;5018479;28;25059;-68
2024/03/14 00:45:53;;;;;;;9.43;7.40;;;;;;;;;;5027108;28;25057;-68
2024/03/14 00:48:21;;;;;;;7.45;6.65;;;;;;;;;;5020044;28;25140;-66
2024/03/14 00:50:49;;;;;;;10.90;8.45;;;;;;;;;;5022736;28;25056;-67
2024/03/14 00:53:16;;;;;;;11.52;7.47;;;;;;;;;;5023150;28;25065;-67
2024/03/14 00:55:42;;;;;;;9.55;6.72;;;;;;;;;;5024058;28;25100;-66
2024/03/14 00:58:10;;;;;;;14.18;7.85;;;;;;;;;;5026384;28;25092;-68
2024/03/14 01:00:36;;;;;;;8.27;7.28;;;;;;;;;;5023604;28;25071;-70
2024/03/14 01:03:02;;;;;;;7.78;6.85;;;;;;;;;;5024359;28;25060;-66
2024/03/14 01:05:29;;;;;;;10.88;8.43;;;;;;;;;;5026408;28;25072;-68
2024/03/14 01:07:55;;;;;;;11.85;8.05;;;;;;;;;;5021853;28;25045;-66
2024/03/14 01:10:21;;;;;;;9.40;7.55;;;;;;;;;;5023158;28;25064;-69
2024/03/14 01:12:48;;;;;;;9.93;8.07;;;;;;;;;;5025988;28;25146;-67
2024/03/14 01:15:16;;;;;;;9.18;7.57;;;;;;;;;;5023447;28;25051;-66
2024/03/14 01:17:42;;;;;;;10.18;6.97;;;;;;;;;;5026287;28;25098;-66
2024/03/14 01:20:11;;;;;;;10.05;7.05;;;;;;;;;;5024816;28;26216;-66
2024/03/14 01:22:37;;;;;;;7.78;6.97;;;;;;;;;;5028064;28;25147;-66
2024/03/14 01:25:06;;;;;;;9.10;7.10;;;;;;;;;;5028488;28;25135;-66
2024/03/14 01:27:32;;;;;;;9.15;7.05;;;;;;;;;;5042167;28;25103;-65
2024/03/14 01:29:58;;;;;;;9.10;6.85;;;;;;;;;;5049978;28;25053;-66
2024/03/14 01:32:24;;;;;;;7.90;6.32;;;;;;;;;;5045831;28;25053;-67
2024/03/14 01:34:50;;;;;;;8.50;6.47;;;;;;;;;;5032179;28;25129;-66
2024/03/14 01:37:16;;;;;;;9.95;6.43;;;;;;;;;;5027456;28;25048;-65
2024/03/14 01:39:42;;;;;;;8.00;6.72;;;;;;;;;;5027470;28;25137;-67
2024/03/14 01:42:12;;;;;;;8.90;6.70;;;;;;;;;;5020509;28;25073;-67
2024/03/14 01:44:52;;;;;;;7.97;6.43;;;;;;;;;;5018755;28;25140;-69
2024/03/14 01:47:18;;;;;;;8.93;6.80;;;;;;;;;;5018162;28;25085;-67
2024/03/14 01:49:45;;;;;;;15.98;7.15;;;;;;;;;;5023614;28;25094;-65
2024/03/14 01:52:11;;;;;;;7.82;6.30;;;;;;;;;;5024001;28;25063;-68
2024/03/14 01:54:37;;;;;;;10.25;7.63;;;;;;;;;;5021706;28;25135;-69
2024/03/14 01:57:03;;;;;;;9.68;6.80;;;;;;;;;;5019790;28;25065;-65
2024/03/14 01:59:30;;;;;;;10.43;7.20;;;;;;;;;;5020704;28;25065;-66
2024/03/14 02:01:56;;;;;;;9.43;7.47;;;;;;;;;;5021049;28;25069;-66
2024/03/14 02:04:27;;;;;;;11.10;6.95;;;;;;;;;;5018849;28;25063;-68
2024/03/14 02:06:57;;;;;;;9.85;7.40;;;;;;;;;;5019014;28;25139;-67
2024/03/14 02:09:23;;;;;;;10.02;7.20;;;;;;;;;;5025499;28;25077;-66
2024/03/14 02:11:50;;;;;;;10.68;7.78;;;;;;;;;;5027001;28;25089;-66
2024/03/14 02:14:16;;;;;;;9.95;7.68;;;;;;;;;;5015812;28;25089;-66
2024/03/14 02:16:42;;;;;;;11.23;7.72;;;;;;;;;;5025719;28;25128;-65
2024/03/14 02:19:08;;;;;;;8.80;7.90;;;;;;;;;;5027395;28;25071;-67
2024/03/14 02:21:34;;;;;;;8.98;7.45;;;;;;;;;;5021627;28;25058;-66
2024/03/14 02:24:02;;;;;;;8.90;6.60;;;;;;;;;;5017462;28;25091;-66
2024/03/14 02:26:28;;;;;;;10.55;8.13;;;;;;;;;;5013824;28;25059;-67
2024/03/14 02:28:54;;;;;;;11.75;7.53;;;;;;;;;;5022274;28;25106;-68
2024/03/14 02:31:20;;;;;;;11.27;8.52;;;;;;;;;;5022958;28;25081;-68
2024/03/14 02:33:46;;;;;;;12.15;8.20;;;;;;;;;;5019494;28;25068;-67
2024/03/14 02:36:12;;;;;;;7.97;7.15;;;;;;;;;;5022449;28;25060;-66
2024/03/14 02:38:38;;;;;;;13.55;8.48;;;;;;;;;;5021301;28;25112;-68
2024/03/14 02:41:04;;;;;;;13.00;7.68;;;;;;;;;;5017082;28;25056;-67
2024/03/14 02:43:30;;;;;;;9.38;7.88;;;;;;;;;;5016319;28;25048;-66
2024/03/14 02:45:56;;;;;;;10.13;8.45;;;;;;;;;;5026133;28;25061;-67
2024/03/14 02:48:22;;;;;;;11.15;8.95;;;;;;;;;;5019119;28;25066;-66
2024/03/14 02:50:49;;;;;;;11.80;7.82;;;;;;;;;;5018008;28;25053;-67
2024/03/14 02:53:14;;;;;;;15.40;8.48;;;;;;;;;;5018311;28;25113;-67
2024/03/14 02:55:44;;;;;;;10.95;8.95;;;;;;;;;;5022932;28;25098;-67
2024/03/14 02:58:11;;;;;;;16.48;9.88;;;;;;;;;;5020580;28;25126;-68
2024/03/14 03:00:38;;;;;;;10.10;9.10;;;;;;;;;;5016542;28;25168;-68
2024/03/14 03:03:06;;;;;;;10.77;9.27;;;;;;;;;;5016706;28;25058;-66
2024/03/14 03:05:32;;;;;;;12.30;9.77;;;;;;;;;;5017209;28;25062;-66
2024/03/14 03:07:59;;;;;;;11.10;9.23;;;;;;;;;;5017003;28;25069;-66
2024/03/14 03:10:25;;;;;;;10.57;9.15;;;;;;;;;;5020210;28;25091;-66
2024/03/14 03:12:51;;;;;;;14.18;10.23;;;;;;;;;;5011841;28;25166;-66
2024/03/14 03:15:17;;;;;;;11.55;10.25;;;;;;;;;;5022603;28;25096;-68
2024/03/14 03:17:43;;;;;;;13.90;11.13;;;;;;;;;;5022414;28;25090;-66
2024/03/14 03:20:10;;;;;;;15.75;10.82;;;;;;;;;;5018415;28;25095;-69
2024/03/14 03:25:23;;;;;;;12.60;9.50;;;;;;;;;;5016500;28;25140;-67
2024/03/14 03:27:49;;;;;;;15.70;10.63;;;;;;;;;;5020686;28;25089;-67
2024/03/14 03:30:16;;;;;;;14.18;11.77;;;;;;;;;;5018937;28;25087;-67
2024/03/14 03:32:45;;;;;;;16.60;12.48;;;;;;;;;;5015372;28;25071;-67
2024/03/14 03:35:11;;;;;;;13.68;12.27;;;;;;;;;;5021748;28;25140;-68
2024/03/14 03:37:38;;;;;;;13.02;10.50;;;;;;;;;;5020936;28;25065;-66
2024/03/14 03:40:14;;;;;;;12.93;10.80;;;;;;;;;;5024580;28;25067;-66
2024/03/14 03:42:41;;;;;;;14.70;12.13;;;;;;;;;;5034584;28;25074;-64
2024/03/14 03:45:10;;;;;;;18.33;14.27;;;;;;;;;;5044810;28;25059;-68
2024/03/14 03:47:37;;;;;;;18.42;13.07;;;;;;;;;;5049199;28;25064;-67
2024/03/14 03:50:03;;;;;;;15.25;12.65;;;;;;;;;;5047159;28;25109;-70
2024/03/14 03:52:31;;;;;;;15.35;12.25;;;;;;;;;;5032650;28;25059;-67
2024/03/14 03:54:58;;;;;;;16.27;13.15;;;;;;;;;;5027274;28;25089;-68
2024/03/14 03:57:24;;;;;;;17.77;13.77;;;;;;;;;;5021547;28;25063;-65
2024/03/14 03:59:50;;;;;;;16.00;12.80;;;;;;;;;;5026582;28;25131;-67
2024/03/14 04:02:18;;;;;;;18.65;14.93;;;;;;;;;;5022108;28;25149;-67
2024/03/14 04:04:45;;;;;;;18.98;15.75;;;;;;;;;;5019380;28;25113;-68
2024/03/14 04:07:14;;;;;;;19.40;14.68;;;;;;;;;;5024200;28;25149;-68
2024/03/14 04:09:44;;;;;;;19.55;15.13;;;;;;;;;;5024405;28;25085;-66
2024/03/14 04:12:16;;;;;;;18.80;15.43;;;;;;;;;;5018605;28;25093;-68
2024/03/14 04:14:46;;;;;;;17.40;15.23;;;;;;;;;;5018798;28;25068;-66
2024/03/14 04:17:12;;;;;;;18.17;15.52;;;;;;;;;;5019517;28;25051;-67
2024/03/14 04:19:45;;;;;;;22.50;17.48;;;;;;;;;;5024366;28;25165;-67
2024/03/14 04:22:11;;;;;;;21.65;17.00;;;;;;;;;;5018989;28;25084;-70
2024/03/14 04:24:37;;;;;;;27.23;17.70;;;;;;;;;;5019495;28;25074;-66
2024/03/14 04:27:06;;;;;;;23.02;16.90;;;;;;;;;;5014129;28;25059;-67
2024/03/14 04:29:32;;;;;;;20.38;16.48;;;;;;;;;;5019017;28;25062;-68
2024/03/14 04:31:58;;;;;;;25.25;18.45;;;;;;;;;;5025000;28;25086;-66
2024/03/14 04:34:24;;;;;;;25.20;18.30;;;;;;;;;;5017134;28;25055;-66
2024/03/14 04:36:50;;;;;;;23.48;19.02;;;;;;;;;;5014353;28;25095;-68
2024/03/14 04:39:19;;;;;;;21.98;17.05;;;;;;;;;;5024192;22;25075;-75
2024/03/14 04:41:45;;;;;;;24.40;18.70;;;;;;;;;;4962448;28;25053;-74
2024/03/14 04:44:11;;;;;;;24.65;17.15;;;;;;;;;;4965962;28;25076;-74
2024/03/14 04:46:41;;;;;;;28.98;19.10;;;;;;;;;;4969248;28;25295;-74
2024/03/14 04:49:08;;;;;;;25.77;19.02;;;;;;;;;;4969971;28;25057;-73
2024/03/14 04:51:34;;;;;;;26.75;19.30;;;;;;;;;;4975088;28;25048;-74
2024/03/14 04:54:02;;;;;;;24.08;18.92;;;;;;;;;;4962987;28;25045;-74
2024/03/14 04:56:30;;;;;;;28.77;20.02;;;;;;;;;;4964792;28;25173;-73
2024/03/14 04:58:56;;;;;;;26.42;20.23;;;;;;;;;;4964165;28;25056;-74
2024/03/14 05:01:22;;;;;;;27.25;20.05;;;;;;;;;;4963912;28;25088;-73
2024/03/14 05:03:48;;;;;;;27.48;21.45;;;;;;;;;;4969970;28;25073;-80
2024/03/14 05:06:14;;;;;;;27.35;19.55;;;;;;;;;;4964862;28;25057;-74
2024/03/14 05:08:42;;;;;;;27.02;20.25;;;;;;;;;;4965047;28;25108;-74
2024/03/14 05:11:08;;;;;;;28.20;21.05;;;;;;;;;;4964059;28;25058;-74
2024/03/14 05:13:34;;;;;;;27.70;20.98;;;;;;;;;;4965624;28;25084;-73
2024/03/14 05:16:00;;;;;;;25.70;20.45;;;;;;;;;;4967620;28;25084;-73
2024/03/14 05:18:26;;;;;;;28.50;20.75;;;;;;;;;;4965371;28;25058;-73
2024/03/14 05:20:53;;;;;;;27.20;21.60;;;;;;;;;;4965898;28;25053;-74
2024/03/14 05:23:21;;;;;;;23.63;18.65;;;;;;;;;;4967574;28;25077;-74
2024/03/14 05:25:52;;;;;;;27.25;21.25;;;;;;;;;;4968260;28;25140;-75
2024/03/14 05:28:18;;;;;;;31.85;21.92;;;;;;;;;;4965246;28;25050;-74
2024/03/14 05:30:44;;;;;;;28.02;20.85;;;;;;;;;;4969329;28;25062;-74
2024/03/14 05:33:10;;;;;;;29.63;20.48;;;;;;;;;;4972592;28;25074;-72
2024/03/14 05:35:36;;;;;;;32.53;22.95;;;;;;;;;;4965783;28;25071;-73
2024/03/14 05:38:05;;;;;;;32.88;22.25;;;;;;;;;;4961435;28;25056;-73
2024/03/14 05:40:31;;;;;;;33.55;22.58;;;;;;;;;;4969170;28;25094;-72
2024/03/14 05:42:57;;;;;;;30.13;20.88;;;;;;;;;;4974567;28;25071;-72
2024/03/14 05:45:23;;;;;;;31.63;23.02;;;;;;;;;;4964743;28;25059;-72
2024/03/14 05:47:51;;;;;;;30.08;21.08;;;;;;;;;;4969853;28;25052;-73
2024/03/14 05:50:17;;;;;;;33.72;22.27;;;;;;;;;;4964006;28;25051;-73
2024/03/14 05:52:43;;;;;;;34.15;23.27;;;;;;;;;;4959881;28;25058;-73
2024/03/14 05:55:09;;;;;;;33.40;22.63;;;;;;;;;;4968911;28;25065;-76
2024/03/14 05:57:36;;;;;;;35.33;24.17;;;;;;;;;;4969792;28;25148;-73
2024/03/14 06:00:03;;;;;;;27.75;19.92;;;;;;;;;;4962439;28;25080;-73
2024/03/14 06:02:29;;;;;;;33.45;22.50;;;;;;;;;;4962808;28;25059;-75
2024/03/14 06:04:55;;;;;;;29.98;21.15;;;;;;;;;;4968656;28;25064;-74
2024/03/14 06:07:21;;;;;;;28.42;20.20;;;;;;;;;;4969393;28;25104;-73
2024/03/14 06:09:49;;;;;;;36.05;23.30;;;;;;;;;;4970077;28;25103;-75
2024/03/14 06:12:16;;;;;;;31.83;22.13;;;;;;;;;;4985154;28;25075;-73
2024/03/14 06:14:42;;;;;;;30.10;21.35;;;;;;;;;;4994691;28;25071;-74
2024/03/14 06:17:10;;;;;;;36.50;22.13;;;;;;;;;;4995513;28;25059;-72
2024/03/14 06:19:36;;;;;;;37.25;23.30;;;;;;;;;;4992377;28;25044;-73
2024/03/14 06:22:03;;;;;;;30.08;20.40;;;;;;;;;;4995295;28;25108;-73
2024/03/14 06:24:29;;;;;;;31.75;21.42;;;;;;;;;;4986752;28;25072;-74
2024/03/14 06:26:55;;;;;;;36.28;21.73;;;;;;;;;;4987100;28;25070;-73
2024/03/14 06:29:22;;;;;;;28.30;19.83;;;;;;;;;;4971172;28;25050;-74
2024/03/14 06:31:49;;;;;;;30.73;20.90;;;;;;;;;;4970441;28;25059;-75
2024/03/14 06:34:15;;;;;;;25.65;18.60;;;;;;;;;;4967704;28;25051;-75
2024/03/14 06:36:41;;;;;;;26.42;19.10;;;;;;;;;;4979153;28;25085;-75
2024/03/14 06:39:07;;;;;;;33.13;21.60;;;;;;;;;;4985323;28;25059;-75
2024/03/14 06:41:34;;;;;;;29.02;18.85;;;;;;;;;;4988804;28;25065;-76
2024/03/14 06:44:01;;;;;;;33.78;22.10;;;;;;;;;;4986916;28;25080;-74
2024/03/14 06:46:28;;;;;;;31.95;20.55;;;;;;;;;;4984678;28;25098;-73
2024/03/14 06:48:54;;;;;;;32.35;19.17;;;;;;;;;;4988940;28;25073;-74
2024/03/14 06:51:20;;;;;;;32.53;20.95;;;;;;;;;;4988180;28;25061;-74
2024/03/14 06:53:47;;;;;;;28.90;19.92;;;;;;;;;;4984995;28;25114;-74
2024/03/14 06:56:13;;;;;;;26.77;19.13;;;;;;;;;;4987470;28;25049;-75
2024/03/14 06:58:40;;;;;;;25.55;17.63;;;;;;;;;;4987389;28;25076;-76
2024/03/14 07:01:08;;;;;;;26.17;18.83;;;;;;;;;;4965465;28;25080;-75
2024/03/14 07:03:34;;;;;;;25.23;18.00;;;;;;;;;;4969567;28;25088;-75
2024/03/14 07:06:00;;;;;;;26.00;19.27;;;;;;;;;;4975744;28;25065;-75
2024/03/14 07:08:26;;;;;;;24.55;17.23;;;;;;;;;;4966883;28;25089;-75
2024/03/14 07:10:55;;;;;;;23.48;16.90;;;;;;;;;;4965554;28;25096;-73
2024/03/14 07:13:21;;;;;;;21.77;16.17;;;;;;;;;;4965633;28;25060;-75
2024/03/14 07:15:48;;;;;;;22.92;15.98;;;;;;;;;;4968471;28;25101;-75
2024/03/14 07:18:14;;;;;;;22.15;16.45;;;;;;;;;;4963727;28;25070;-73
2024/03/14 07:20:43;;;;;;;19.83;14.30;;;;;;;;;;4957176;28;25138;-75
2024/03/14 07:23:20;;;;;;;18.48;15.10;;;;;;;;;;4967452;28;25134;-76
2024/03/14 07:25:46;;;;;;;16.80;14.65;;;;;;;;;;4962556;28;25054;-75
2024/03/14 07:28:12;;;;;;;17.27;13.48;;;;;;;;;;4966230;28;25067;-74
2024/03/14 07:30:41;;;;;;;16.02;12.57;;;;;;;;;;4970007;28;25053;-73
2024/03/14 07:33:07;;;;;;;17.63;12.18;;;;;;;;;;4966345;28;25185;-75
2024/03/14 07:35:34;;;;;;;16.70;12.27;;;;;;;;;;4969741;28;25098;-74
2024/03/14 07:38:04;;;;;;;18.20;13.05;;;;;;;;;;4972835;28;25058;-76
2024/03/14 07:40:32;;;;;;;13.55;11.00;;;;;;;;;;4971440;28;25071;-75
2024/03/14 07:42:58;;;;;;;14.52;11.02;;;;;;;;;;4966978;28;25067;-75
2024/03/14 07:45:24;;;;;;;14.13;11.40;;;;;;;;;;4969165;28;25066;-74
2024/03/14 07:47:52;;;;;;;16.30;10.52;;;;;;;;;;4967739;28;25080;-75
2024/03/14 07:50:18;;;;;;;14.07;10.05;;;;;;;;;;4963347;28;25158;-73
2024/03/14 07:52:47;;;;;;;14.50;10.30;;;;;;;;;;4964369;28;25132;-73
2024/03/14 07:55:16;;;;;;;16.00;10.52;;;;;;;;;;4946413;28;25147;-74
2024/03/14 07:57:42;;;;;;;11.98;9.40;;;;;;;;;;4964630;28;25058;-75
2024/03/14 08:00:08;;;;;;;12.98;9.52;;;;;;;;;;4960262;28;25070;-74
2024/03/14 08:02:35;;;;;;;12.27;9.52;;;;;;;;;;4965337;28;25107;-75
2024/03/14 08:05:06;;;;;;;12.77;9.63;;;;;;;;;;4947412;28;25060;-75
2024/03/14 08:07:33;;;;;;;10.82;9.05;;;;;;;;;;4968472;28;25047;-74
2024/03/14 08:09:59;;;;;;;14.23;9.38;;;;;;;;;;4973994;28;25115;-73
2024/03/14 08:12:31;;;;;;;12.20;9.35;;;;;;;;;;4967121;28;25055;-74
2024/03/14 08:15:05;;;;;;;14.35;9.85;;;;;;;;;;4972775;28;25147;-73
2024/03/14 08:17:31;;;;;;;11.45;8.98;;;;;;;;;;4966013;28;25055;-73
2024/03/14 08:19:57;;;;;;;16.30;9.98;;;;;;;;;;4970440;28;25066;-74
2024/03/14 08:22:25;;;;;;;9.35;7.93;;;;;;;;;;4968211;28;25064;-74
2024/03/14 08:24:52;;;;;;;12.02;8.73;;;;;;;;;;4971483;28;25149;-76
2024/03/14 08:27:19;;;;;;;11.25;8.45;;;;;;;;;;4966630;28;25088;-74
2024/03/14 08:29:47;;;;;;;14.30;8.93;;;;;;;;;;4972711;28;25077;-74
2024/03/14 08:32:16;;;;;;;11.40;8.60;;;;;;;;;;4965587;28;25070;-74
2024/03/14 08:34:42;;;;;;;11.48;7.28;;;;;;;;;;4965120;28;25050;-74
2024/03/14 08:37:10;;;;;;;11.00;8.15;;;;;;;;;;4967199;28;25071;-74
2024/03/14 08:39:36;;;;;;;13.05;7.65;;;;;;;;;;4964204;28;25084;-76
2024/03/14 08:42:02;;;;;;;9.40;7.70;;;;;;;;;;4968647;28;25103;-73
2024/03/14 08:44:29;;;;;;;13.20;8.02;;;;;;;;;;4964916;28;25064;-76
2024/03/14 08:46:55;;;;;;;12.13;7.70;;;;;;;;;;4970424;28;25053;-76
2024/03/14 08:49:21;;;;;;;11.25;7.32;;;;;;;;;;4966505;28;25074;-77
2024/03/14 08:51:48;;;;;;;8.70;5.93;;;;;;;;;;4968000;28;25070;-74
2024/03/14 08:54:28;;;;;;;10.05;6.80;;;;;;;;;;4966071;28;25076;-75
2024/03/14 08:56:58;;;;;;;11.85;6.85;;;;;;;;;;4971062;28;25061;-75
2024/03/14 08:59:25;;;;;;;12.63;6.95;;;;;;;;;;4963449;28;25182;-73
2024/03/14 09:01:51;;;;;;;9.73;6.45;;;;;;;;;;4969642;28;25104;-76
2024/03/14 09:04:19;;;;;;;8.45;6.28;;;;;;;;;;4965950;28;25093;-76
2024/03/14 09:06:45;;;;;;;9.07;6.15;;;;;;;;;;4965671;28;25459;-73
2024/03/14 09:09:58;;;;;;;6.97;5.95;;;;;;;;;;4964234;28;25068;-76
2024/03/14 09:12:08;;;;;;;10.40;6.63;;;;;;;;;;4963320;28;25117;-74
2024/03/14 09:14:35;;;;;;;10.65;5.85;;;;;;;;;;4963725;28;25155;-74
2024/03/14 09:17:04;;;;;;;8.30;5.68;;;;;;;;;;4965205;28;25065;-74
2024/03/14 09:19:31;;;;;;;7.40;5.95;;;;;;;;;;4964341;28;25088;-74
2024/03/14 09:21:57;;;;;;;12.60;6.18;;;;;;;;;;4964870;28;25061;-75
2024/03/14 09:24:23;;;;;;;9.45;5.57;;;;;;;;;;4971627;28;25061;-73
2024/03/14 09:26:49;;;;;;;7.72;5.40;;;;;;;;;;4970186;28;25067;-74
2024/03/14 09:29:15;;;;;;;6.97;5.22;;;;;;;;;;4968794;28;25075;-72
2024/03/14 09:31:44;;;;;;;8.18;5.38;;;;;;;;;;4969127;28;25062;-77
2024/03/14 09:34:11;;;;;;;7.85;5.45;;;;;;;;;;4971074;28;25047;-75
2024/03/14 09:36:37;;;;;;;6.28;5.00;;;;;;;;;;4973837;28;25145;-74
2024/03/14 09:39:13;;;;;;;7.90;5.43;;;;;;;;;;4975848;28;25072;-73
2024/03/14 09:41:40;;;;;;;8.68;5.22;;;;;;;;;;4973537;28;25082;-73
2024/03/14 09:44:06;;;;;;;8.13;5.18;;;;;;;;;;4965003;28;25159;-73
2024/03/14 09:46:34;;;;;;;5.85;5.13;;;;;;;;;;4969123;28;25161;-72
2024/03/14 09:49:01;;;;;;;6.38;4.78;;;;;;;;;;4969057;28;25102;-73
2024/03/14 09:51:27;;;;;;;4.88;4.47;;;;;;;;;;4977300;28;25064;-74
2024/03/14 09:53:54;;;;;;;7.85;4.93;;;;;;;;;;4966621;28;25056;-75
2024/03/14 09:56:21;;;;;;;4.93;4.25;;;;;;;;;;4976515;28;25068;-74
2024/03/14 09:58:47;;;;;;;7.43;5.03;;;;;;;;;;4973964;28;25086;-73
2024/03/14 10:01:13;;;;;;;7.53;5.18;;;;;;;;;;4980396;28;25081;-73
2024/03/14 10:03:39;;;;;;;6.13;4.30;;;;;;;;;;4982516;28;25104;-73
2024/03/14 10:06:15;;;;;;;7.05;4.60;;;;;;;;;;4986391;28;25091;-73
2024/03/14 10:08:48;;;;;;;6.05;4.70;;;;;;;;;;4988832;28;25062;-73
2024/03/14 10:11:14;;;;;;;6.35;5.15;;;;;;;;;;4981945;28;25064;-74
2024/03/14 10:13:41;;;;;;;6.13;4.50;;;;;;;;;;4982194;28;25099;-74
2024/03/14 10:16:07;;;;;;;7.22;4.57;;;;;;;;;;4993405;28;25108;-73
2024/03/14 10:18:34;;;;;;;4.75;4.30;;;;;;;;;;5001367;28;25067;-74
2024/03/14 10:21:07;;;;;;;6.70;4.68;;;;;;;;;;4996460;28;25070;-73
2024/03/14 10:23:34;;;;;;;7.97;4.53;;;;;;;;;;4992591;28;25103;-74
2024/03/14 10:26:00;;;;;;;9.82;4.70;;;;;;;;;;4986656;28;25086;-74
2024/03/14 10:28:34;;;;;;;5.15;4.38;;;;;;;;;;4985288;28;25082;-74
2024/03/14 10:31:04;;;;;;;3.58;3.28;;;;;;;;;;4988708;28;25241;-74
2024/03/14 10:33:32;;;;;;;5.05;3.72;;;;;;;;;;4986218;28;25087;-74
2024/03/14 10:35:59;;;;;;;4.22;3.63;;;;;;;;;;4994309;28;25053;-73
2024/03/14 10:38:26;;;;;;;4.32;3.83;;;;;;;;;;4972704;28;25104;-75
2024/03/14 10:41:05;;;;;;;5.55;3.92;;;;;;;;;;4972184;28;25084;-74
2024/03/14 10:43:36;;;;;;;3.55;3.22;;;;;;;;;;4960521;28;25056;-74
2024/03/14 10:46:03;;;;;;;6.47;3.88;;;;;;;;;;4970941;28;25079;-75
2024/03/14 10:48:29;;;;;;;5.78;3.42;;;;;;;;;;4962319;28;25068;-74
2024/03/14 10:50:57;;;;;;;6.32;3.83;;;;;;;;;;4967940;28;25126;-75
2024/03/14 10:53:24;;;;;;;5.95;3.38;;;;;;;;;;4971000;28;25095;-74
2024/03/14 10:55:52;;;;;;;7.03;3.85;;;;;;;;;;4958538;28;25131;-73
2024/03/14 10:58:19;;;;;;;3.65;3.35;;;;;;;;;;4965106;28;25121;-74
2024/03/14 11:00:46;;;;;;;4.80;3.45;;;;;;;;;;4962191;28;25094;-75
2024/03/14 11:03:17;;;;;;;3.35;3.05;;;;;;;;;;4961406;28;25066;-74
2024/03/14 11:05:50;;;;;;;4.83;2.50;;;;;;;;;;4962763;28;25079;-74
2024/03/14 11:08:17;;;;;;;4.63;3.20;;;;;;;;;;4962457;28;25079;-75
2024/03/14 11:10:46;;;;;;;3.35;3.03;;;;;;;;;;4969859;28;25096;-73
2024/03/14 11:13:12;;;;;;;3.95;3.00;;;;;;;;;;4960094;28;25058;-75
2024/03/14 11:15:39;;;;;;;4.05;2.50;;;;;;;;;;4968510;28;25106;-75
2024/03/14 11:18:07;;;;;;;2.58;2.28;;;;;;;;;;4965502;28;25055;-75
2024/03/14 11:20:36;;;;;;;2.72;2.50;;;;;;;;;;4963295;28;25098;-76
2024/03/14 11:23:03;;;;;;;3.97;2.55;;;;;;;;;;4956955;28;25133;-75
2024/03/14 11:25:31;;;;;;;4.40;2.50;;;;;;;;;;4962144;28;25092;-76
2024/03/14 11:27:57;;;;;;;5.32;2.30;;;;;;;;;;4964125;28;25122;-75
2024/03/14 11:30:24;;;;;;;2.75;1.50;;;;;;;;;;4964335;28;25060;-77
2024/03/14 11:32:55;;;;;;;4.60;2.00;;;;;;;;;;4955574;28;25094;-76
2024/03/14 11:35:43;;;;;;;3.42;1.83;;;;;;;;;;4962816;28;25054;-73
2024/03/14 11:38:18;;;;;;;3.92;2.20;;;;;;;;;;4969505;28;25045;-76
2024/03/14 11:40:47;;;;;;;3.47;1.60;;;;;;;;;;4961810;28;25062;-75
2024/03/14 11:43:20;;;;;;;3.53;1.63;;;;;;;;;;4963820;28;25144;-76
2024/03/14 11:45:49;;;;;;;2.15;1.45;;;;;;;;;;4961068;28;25144;-75
2024/03/14 11:48:15;;;;;;;3.30;1.75;;;;;;;;;;4958869;28;25072;-75
2024/03/14 11:50:42;;;;;;;2.65;1.60;;;;;;;;;;4966474;28;25080;-75
2024/03/14 11:53:11;;;;;;;2.00;1.45;;;;;;;;;;4965525;28;25059;-77
2024/03/14 11:55:40;;;;;;;5.13;1.77;;;;;;;;;;4952652;28;25082;-77
2024/03/14 11:58:16;;;;;;;1.85;1.35;;;;;;;;;;4952956;28;25148;-79
2024/03/14 12:00:42;;;;;;;3.30;1.70;;;;;;;;;;4965932;28;25086;-77
2024/03/14 12:03:18;;;;;;;6.05;1.90;;;;;;;;;;4961861;28;25096;-76
2024/03/14 12:05:51;;;;;;;4.50;2.00;;;;;;;;;;4961222;28;25132;-73
2024/03/14 12:08:18;;;;;;;5.25;1.85;;;;;;;;;;4966099;28;25076;-75
2024/03/14 12:10:44;;;;;;;3.95;1.95;;;;;;;;;;4973902;28;25066;-77
2024/03/14 12:13:14;;;;;;;4.22;1.27;;;;;;;;;;4956622;28;25059;-76
2024/03/14 12:15:40;;;;;;;3.00;2.00;;;;;;;;;;4970417;28;25074;-76
2024/03/14 12:18:09;;;;;;;4.05;1.85;;;;;;;;;;4966392;28;25069;-78
2024/03/14 12:20:36;;;;;;;3.85;2.00;;;;;;;;;;4962755;28;25072;-76
2024/03/14 12:23:03;;;;;;;5.22;1.50;;;;;;;;;;4968695;28;25097;-76
2024/03/14 12:25:29;;;;;;;3.97;1.85;;;;;;;;;;4967663;28;25086;-75
2024/03/14 12:27:59;;;;;;;3.65;1.83;;;;;;;;;;4959748;28;25076;-76
2024/03/14 12:30:25;;;;;;;2.38;1.70;;;;;;;;;;4971640;28;24987;-75
2024/03/14 12:32:54;;;;;;;2.80;1.85;;;;;;;;;;4961565;28;25064;-75
2024/03/14 12:35:22;;;;;;;2.88;1.90;;;;;;;;;;4972273;28;25166;-77
2024/03/14 12:37:49;;;;;;;1.92;1.30;;;;;;;;;;4961579;28;25082;-76
2024/03/14 12:40:19;;;;;;;4.18;1.75;;;;;;;;;;4971737;28;25064;-76
2024/03/14 12:42:46;;;;;;;2.35;1.60;;;;;;;;;;4962130;28;25089;-78
2024/03/14 12:45:15;;;;;;;2.40;1.67;;;;;;;;;;4963559;28;25132;-78
2024/03/14 12:47:42;;;;;;;4.38;1.48;;;;;;;;;;4969387;28;25053;-74
2024/03/14 12:50:19;;;;;;;2.05;1.42;;;;;;;;;;4964570;28;25138;-75
2024/03/14 12:52:45;;;;;;;1.83;1.42;;;;;;;;;;4968380;28;25084;-76
2024/03/14 12:55:18;;;;;;;2.20;1.30;;;;;;;;;;4966795;28;25068;-76
2024/03/14 12:57:44;;;;;;;3.60;1.58;;;;;;;;;;4963029;28;25066;-76
2024/03/14 13:00:17;;;;;;;2.38;1.60;;;;;;;;;;4969793;28;25149;-78
2024/03/14 13:02:49;;;;;;;3.72;1.70;;;;;;;;;;4960664;28;25106;-75
2024/03/14 13:05:18;;;;;;;;;;;;;;;;;;4959438;28;25061;-76
2024/03/14 13:08:03;;;;;;;3.55;1.70;;;;;;;;;;4962331;28;24084;-75
2024/03/14 13:10:35;;;;;;;4.47;1.58;;;;;;;;;;4969594;28;25057;-76
2024/03/14 13:13:01;;;;;;;3.73;1.73;;;;;;;;;;4962762;28;25047;-76
2024/03/14 13:15:27;;;;;;;2.88;1.30;;;;;;;;;;4960901;28;25211;-76
2024/03/14 13:17:53;;;;;;;3.60;1.00;;;;;;;;;;4965585;28;25075;-77
2024/03/14 13:20:25;;;;;;;5.35;1.33;;;;;;;;;;4966725;28;25062;-76
2024/03/14 13:22:54;;;;;;;4.05;1.63;;;;;;;;;;4964674;28;25069;-76
2024/03/14 13:25:24;;;;;;;10.75;2.28;;;;;;;;;;4962141;28;25072;-76
2024/03/14 13:27:50;;;;;;;4.07;1.63;;;;;;;;;;4963326;28;25078;-76
2024/03/14 13:30:19;;;;;;;2.78;1.50;;;;;;;;;;4963868;28;25134;-77
2024/03/14 13:32:47;;;;;;;3.92;1.13;;;;;;;;;;4966581;28;25164;-76
2024/03/14 13:35:13;;;;;;;5.28;1.35;;;;;;;;;;4959981;28;25076;-77
2024/03/14 13:37:42;;;;;;;3.72;1.40;;;;;;;;;;4966947;28;25096;-77
2024/03/14 13:40:11;;;;;;;4.10;1.63;;;;;;;;;;4963432;28;25105;-78
2024/03/14 13:42:38;;;;;;;4.50;1.65;;;;;;;;;;4966549;28;25047;-76
2024/03/14 13:45:05;;;;;;;1.85;1.60;;;;;;;;;;4966483;28;25068;-76
2024/03/14 13:47:32;;;;;;;3.25;1.48;;;;;;;;;;4968704;28;25066;-76
2024/03/14 13:49:58;;;;;;;3.03;1.80;;;;;;;;;;4966267;28;25053;-77
2024/03/14 13:52:24;;;;;;;4.85;1.80;;;;;;;;;;4967809;28;25077;-76
2024/03/14 13:54:50;;;;;;;3.08;1.42;;;;;;;;;;4976870;28;25059;-77
2024/03/14 13:57:19;;;;;;;2.92;1.23;;;;;;;;;;4969481;28;25174;-75
2024/03/14 13:59:49;;;;;;;1.35;1.25;;;;;;;;;;4960449;28;25073;-75
2024/03/14 14:02:17;;;;;;;4.10;1.55;;;;;;;;;;4965000;28;25065;-77
2024/03/14 14:04:43;;;;;;;2.88;1.55;;;;;;;;;;4964495;28;25100;-76
2024/03/14 14:07:12;;;;;;;2.65;1.20;;;;;;;;;;4967279;28;25152;-76
2024/03/14 14:09:38;;;;;;;2.92;1.25;;;;;;;;;;4977580;28;25087;-73
2024/03/14 14:12:05;;;;;;;3.35;1.33;;;;;;;;;;4981983;28;25057;-76
2024/03/14 14:14:31;;;;;;;3.08;1.58;;;;;;;;;;4987914;28;25072;-76
2024/03/14 14:16:59;;;;;;;2.38;1.40;;;;;;;;;;4991394;28;25052;-75
2024/03/14 14:19:26;;;;;;;5.28;1.70;;;;;;;;;;4992838;28;25079;-73
2024/03/14 14:21:52;;;;;;;7.25;1.80;;;;;;;;;;4984704;28;25066;-75
2024/03/14 14:24:18;;;;;;;3.72;1.70;;;;;;;;;;4985610;28;25076;-75
2024/03/14 14:26:47;;;;;;;4.90;2.65;;;;;;;;;;4989772;28;25048;-76
2024/03/14 14:29:13;;;;;;;4.72;1.77;;;;;;;;;;4966020;28;25077;-75
2024/03/14 14:31:39;;;;;;;3.28;1.80;;;;;;;;;;4974150;28;25087;-75
2024/03/14 14:34:06;;;;;;;5.00;1.67;;;;;;;;;;4973851;28;25109;-75
2024/03/14 14:36:32;;;;;;;3.85;1.80;;;;;;;;;;4986147;28;25075;-74
2024/03/14 14:38:59;;;;;;;1.80;1.42;;;;;;;;;;4980664;28;25066;-74